createdAt,value
2023-01-19T00:00:49.926Z,19.48
2023-01-19T00:03:17.924Z,18.63
2023-01-19T00:05:44.972Z,17.00
2023-01-19T00:08:14.991Z,18.98
2023-01-19T00:10:53.231Z,16.33
2023-01-19T00:13:19.723Z,17.25
2023-01-19T00:15:46.226Z,19.55
2023-01-19T00:18:12.755Z,14.05
2023-01-19T00:20:40.297Z,22.60
2023-01-19T00:23:08.101Z,18.50
2023-01-19T00:25:35.424Z,20.52
2023-01-19T00:28:02.102Z,17.45
2023-01-19T00:30:29.121Z,23.15
2023-01-19T00:32:55.993Z,18.65
2023-01-19T00:35:22.444Z,18.70
2023-01-19T00:37:49.186Z,17.70
2023-01-19T00:40:16.010Z,17.67
2023-01-19T00:42:44.403Z,15.93
2023-01-19T00:45:14.948Z,20.75
2023-01-19T00:47:41.923Z,22.73
2023-01-19T00:50:11.642Z,20.15
2023-01-19T00:52:41.950Z,19.98
2023-01-19T00:55:10.677Z,21.58
2023-01-19T00:57:38.079Z,20.25
2023-01-19T01:00:07.935Z,16.60
2023-01-19T01:02:35.124Z,21.58
2023-01-19T01:05:02.903Z,24.50
2023-01-19T01:07:30.273Z,20.10
2023-01-19T01:09:57.366Z,21.40
2023-01-19T01:12:23.831Z,21.92
2023-01-19T01:14:50.354Z,24.70
2023-01-19T01:17:16.816Z,20.25
2023-01-19T01:19:43.259Z,20.73
2023-01-19T01:22:10.007Z,18.17
2023-01-19T01:24:36.667Z,19.25
2023-01-19T01:27:03.195Z,20.75
2023-01-19T01:29:29.637Z,18.42
2023-01-19T01:31:56.225Z,21.00
2023-01-19T01:34:22.689Z,19.98
2023-01-19T01:36:49.166Z,19.45
2023-01-19T01:39:15.639Z,24.20
2023-01-19T01:41:42.091Z,18.52
2023-01-19T01:44:50.160Z,20.42
2023-01-19T01:47:32.605Z,18.30
2023-01-19T01:50:05.089Z,18.65
2023-01-19T01:52:34.192Z,18.42
2023-01-19T01:55:03.024Z,19.02
2023-01-19T01:57:30.087Z,18.05
2023-01-19T01:59:58.480Z,19.13
2023-01-19T02:02:48.653Z,16.35
2023-01-19T02:05:34.710Z,17.42
2023-01-19T02:08:25.892Z,19.48
2023-01-19T02:11:10.698Z,15.85
2023-01-19T02:13:43.756Z,16.80
2023-01-19T02:16:11.556Z,14.43
2023-01-19T02:18:38.454Z,16.92
2023-01-19T02:21:24.147Z,14.25
2023-01-19T02:23:58.936Z,16.30
2023-01-19T02:26:29.607Z,20.67
2023-01-19T02:28:59.275Z,12.30
2023-01-19T02:31:26.945Z,17.17
2023-01-19T02:33:54.174Z,17.05
2023-01-19T02:36:25.910Z,15.73
2023-01-19T02:38:56.166Z,19.60
2023-01-19T02:41:29.767Z,17.58
2023-01-19T02:43:58.574Z,16.98
2023-01-19T02:46:25.870Z,15.35
2023-01-19T02:48:52.389Z,17.45
2023-01-19T02:51:24.592Z,18.45
2023-01-19T02:54:01.369Z,16.05
2023-01-19T02:56:36.833Z,18.33
2023-01-19T02:59:10.126Z,17.85
2023-01-19T03:02:00.708Z,17.77
2023-01-19T03:04:48.551Z,15.15
2023-01-19T03:07:24.694Z,15.10
2023-01-19T03:10:26.370Z,12.75
2023-01-19T03:13:03.321Z,22.65
2023-01-19T03:15:54.281Z,17.42
2023-01-19T03:18:26.188Z,20.48
2023-01-19T03:20:55.284Z,17.42
2023-01-19T03:23:27.333Z,17.63
2023-01-19T03:25:57.525Z,16.30
2023-01-19T03:28:28.177Z,18.25
2023-01-19T03:31:21.259Z,13.57
2023-01-19T03:33:51.248Z,16.17
2023-01-19T03:36:27.481Z,14.55
2023-01-19T03:38:55.454Z,16.10
2023-01-19T03:41:24.616Z,15.85
2023-01-19T03:43:53.598Z,15.80
2023-01-19T03:46:21.173Z,13.93
2023-01-19T03:48:48.358Z,17.77
2023-01-19T03:51:16.270Z,18.77
2023-01-19T03:53:43.097Z,16.45
2023-01-19T03:56:20.359Z,15.05
2023-01-19T04:01:14.926Z,14.48
2023-01-19T04:03:42.291Z,21.50
2023-01-19T04:06:09.878Z,12.90
2023-01-19T04:08:37.007Z,16.85
2023-01-19T04:11:03.681Z,14.48
2023-01-19T04:13:30.520Z,22.33
2023-01-19T04:16:04.738Z,20.45
2023-01-19T04:18:33.917Z,14.95
2023-01-19T04:21:06.271Z,25.83
2023-01-19T04:23:33.752Z,13.40
2023-01-19T04:26:04.979Z,17.23
2023-01-19T04:28:32.555Z,16.23
2023-01-19T04:30:59.319Z,16.30
2023-01-19T04:33:27.707Z,23.25
2023-01-19T04:35:56.081Z,19.05
2023-01-19T04:38:23.844Z,21.75
2023-01-19T04:40:51.136Z,18.00
2023-01-19T04:43:17.694Z,18.67
2023-01-19T04:45:44.815Z,16.83
2023-01-19T04:48:12.054Z,18.45
2023-01-19T04:50:39.250Z,23.08
2023-01-19T04:53:05.781Z,25.42
2023-01-19T04:55:32.234Z,23.63
2023-01-19T04:57:58.763Z,21.85
2023-01-19T05:00:26.749Z,23.02
2023-01-19T05:02:53.915Z,23.33
2023-01-19T05:05:20.513Z,23.40
2023-01-19T05:07:46.976Z,23.30
2023-01-19T05:10:13.781Z,31.25
2023-01-19T05:12:40.280Z,29.98
2023-01-19T05:15:07.875Z,32.03
2023-01-19T05:17:34.525Z,30.20
2023-01-19T05:20:01.015Z,33.75
2023-01-19T05:22:27.585Z,31.25
2023-01-19T05:24:54.406Z,27.83
2023-01-19T05:27:21.025Z,38.08
2023-01-19T05:29:47.469Z,36.05
2023-01-19T05:32:13.943Z,42.58
2023-01-19T05:34:40.910Z,42.30
2023-01-19T05:37:07.422Z,43.83
2023-01-19T05:39:34.081Z,49.35
2023-01-19T05:42:00.525Z,40.90
2023-01-19T05:44:27.003Z,43.25
2023-01-19T05:46:53.511Z,43.50
2023-01-19T05:49:20.025Z,43.58
2023-01-19T05:51:46.495Z,45.50
2023-01-19T05:54:15.464Z,42.92
2023-01-19T05:56:42.600Z,47.08
2023-01-19T05:59:09.530Z,40.83
2023-01-19T06:01:38.911Z,38.90
2023-01-19T06:04:06.464Z,40.78
2023-01-19T06:06:33.091Z,39.55
2023-01-19T06:08:59.570Z,35.33
2023-01-19T06:11:26.229Z,42.00
2023-01-19T06:13:52.967Z,34.75
2023-01-19T06:16:19.603Z,34.03
2023-01-19T06:18:46.164Z,35.53
2023-01-19T06:21:14.261Z,36.90
2023-01-19T06:23:41.217Z,41.55
2023-01-19T06:26:07.903Z,42.22
2023-01-19T06:28:34.516Z,39.55
2023-01-19T06:31:01.131Z,46.25
2023-01-19T06:33:28.063Z,44.97
2023-01-19T06:35:55.498Z,44.47
2023-01-19T06:38:22.422Z,41.90
2023-01-19T06:40:54.610Z,46.55
2023-01-19T06:43:21.406Z,43.15
2023-01-19T06:45:48.078Z,41.35
2023-01-19T06:48:15.136Z,42.97
2023-01-19T06:50:41.613Z,47.25
2023-01-19T06:53:08.058Z,42.30
2023-01-19T06:55:36.439Z,40.17
2023-01-19T06:58:03.233Z,39.10
2023-01-19T07:00:29.712Z,41.28
2023-01-19T07:02:56.638Z,39.33
2023-01-19T07:05:23.119Z,41.35
2023-01-19T07:07:53.710Z,41.95
2023-01-19T07:10:20.414Z,37.53
2023-01-19T07:12:47.481Z,42.30
2023-01-19T07:15:16.196Z,35.65
2023-01-19T07:17:43.152Z,43.13
2023-01-19T07:20:13.024Z,33.65
2023-01-19T07:22:40.260Z,33.05
2023-01-19T07:25:07.389Z,37.58
2023-01-19T07:27:33.910Z,35.92
2023-01-19T07:30:01.216Z,38.95
2023-01-19T07:32:28.923Z,34.53
2023-01-19T07:34:55.388Z,37.78
2023-01-19T07:37:22.452Z,34.80
2023-01-19T07:39:48.959Z,36.15
2023-01-19T07:42:15.512Z,32.88
2023-01-19T07:44:42.270Z,39.13
2023-01-19T07:47:11.306Z,34.63
2023-01-19T07:49:38.003Z,32.25
2023-01-19T07:52:04.709Z,33.10
2023-01-19T07:54:31.174Z,33.03
2023-01-19T07:56:57.716Z,34.75
2023-01-19T07:59:24.265Z,35.92
2023-01-19T08:01:50.931Z,32.28
2023-01-19T08:04:19.080Z,33.28
2023-01-19T08:06:47.185Z,34.40
2023-01-19T08:09:13.632Z,35.65
2023-01-19T08:11:40.370Z,33.60
2023-01-19T08:14:08.048Z,34.17
2023-01-19T08:16:35.108Z,34.63
2023-01-19T08:19:01.790Z,42.25
2023-01-19T08:21:28.398Z,33.42
2023-01-19T08:23:56.152Z,34.30
2023-01-19T08:26:29.316Z,41.88
2023-01-19T08:29:00.771Z,39.15
2023-01-19T08:31:27.879Z,38.28
2023-01-19T08:33:54.463Z,41.20
2023-01-19T08:36:22.543Z,41.80
2023-01-19T08:38:49.045Z,45.88
2023-01-19T08:41:18.445Z,43.00
2023-01-19T08:43:45.559Z,47.28
2023-01-19T08:46:12.493Z,49.50
2023-01-19T08:48:40.008Z,48.42
2023-01-19T08:51:06.757Z,48.50
2023-01-19T08:53:33.344Z,49.80
2023-01-19T08:56:03.483Z,47.08
2023-01-19T08:58:30.044Z,46.72
2023-01-19T09:00:56.615Z,43.63
2023-01-19T09:03:23.210Z,51.25
2023-01-19T09:05:50.356Z,50.83
2023-01-19T09:08:17.186Z,52.22
2023-01-19T09:10:49.075Z,54.72
2023-01-19T09:13:16.665Z,54.92
2023-01-19T09:15:43.567Z,53.00
2023-01-19T09:18:15.669Z,58.95
2023-01-19T09:20:43.706Z,52.47
2023-01-19T09:23:15.867Z,61.53
2023-01-19T09:25:44.172Z,62.05
2023-01-19T09:28:12.746Z,52.10
2023-01-19T09:30:41.119Z,69.80
2023-01-19T09:33:13.024Z,63.65
2023-01-19T09:35:40.399Z,66.72
2023-01-19T09:38:08.874Z,57.42
2023-01-19T09:40:42.191Z,62.92
2023-01-19T09:43:19.292Z,57.10
2023-01-19T09:45:51.869Z,63.85
2023-01-19T09:48:31.921Z,67.97
2023-01-19T09:51:04.284Z,61.00
2023-01-19T09:53:44.379Z,59.85
2023-01-19T09:56:15.888Z,55.15
2023-01-19T09:58:42.528Z,58.97
2023-01-19T10:01:36.605Z,63.70
2023-01-19T10:04:26.866Z,59.70
2023-01-19T10:07:02.406Z,50.50
2023-01-19T10:09:33.198Z,56.50
2023-01-19T10:12:19.841Z,54.08
2023-01-19T10:14:58.343Z,49.97
2023-01-19T10:17:30.612Z,54.53
2023-01-19T10:20:02.030Z,57.40
2023-01-19T10:22:28.984Z,52.90
2023-01-19T10:25:06.026Z,46.45
2023-01-19T10:27:34.936Z,50.00
2023-01-19T10:30:01.952Z,53.25
2023-01-19T10:32:32.786Z,50.22
2023-01-19T10:35:00.028Z,51.85
2023-01-19T10:37:34.228Z,52.40
2023-01-19T10:40:09.974Z,50.15
2023-01-19T10:42:38.523Z,55.50
2023-01-19T10:45:26.932Z,55.67
2023-01-19T10:47:57.724Z,52.40
2023-01-19T10:50:24.338Z,54.25
2023-01-19T10:52:53.080Z,52.95
2023-01-19T10:55:39.821Z,53.25
2023-01-19T10:58:25.633Z,54.25
2023-01-19T11:00:52.467Z,44.35
2023-01-19T11:03:29.206Z,49.53
2023-01-19T11:06:20.553Z,52.13
2023-01-19T11:08:51.246Z,47.00
2023-01-19T11:11:20.249Z,44.13
2023-01-19T11:14:03.354Z,46.33
2023-01-19T11:16:32.277Z,43.90
2023-01-19T11:19:02.032Z,45.30
2023-01-19T11:21:30.477Z,45.28
2023-01-19T11:24:02.361Z,54.80
2023-01-19T11:26:57.488Z,46.03
2023-01-19T11:29:26.735Z,44.25
2023-01-19T11:31:54.899Z,45.00
2023-01-19T11:34:36.732Z,48.45
2023-01-19T11:37:18.417Z,55.05
2023-01-19T11:39:57.769Z,45.83
2023-01-19T11:42:25.356Z,46.20
2023-01-19T11:44:57.974Z,46.95
2023-01-19T11:47:38.301Z,52.58
2023-01-19T11:50:13.619Z,45.03
2023-01-19T11:52:48.220Z,43.10
2023-01-19T11:55:40.831Z,44.22
2023-01-19T11:58:09.334Z,47.40
2023-01-19T12:00:45.243Z,47.83
2023-01-19T12:03:26.083Z,49.22
2023-01-19T12:05:57.074Z,45.85
2023-01-19T12:08:30.197Z,40.15
2023-01-19T12:10:59.885Z,41.97
2023-01-19T12:13:27.834Z,49.70
2023-01-19T12:16:21.314Z,44.55
2023-01-19T12:19:15.919Z,51.65
2023-01-19T12:21:42.895Z,55.20
2023-01-19T12:24:30.382Z,50.22
2023-01-19T12:27:01.094Z,47.42
2023-01-19T12:29:33.765Z,52.97
2023-01-19T12:32:20.151Z,50.75
2023-01-19T12:34:50.864Z,43.38
2023-01-19T12:37:36.403Z,49.90
2023-01-19T12:40:18.951Z,50.75
2023-01-19T12:43:04.856Z,54.80
2023-01-19T12:45:36.914Z,43.17
2023-01-19T12:48:04.846Z,44.58
2023-01-19T12:50:37.830Z,46.35
2023-01-19T12:53:15.649Z,46.72
2023-01-19T12:55:46.587Z,45.65
2023-01-19T13:01:15.611Z,47.88
2023-01-19T13:03:59.354Z,41.75
2023-01-19T13:06:49.164Z,40.75
2023-01-19T13:09:30.523Z,43.45
2023-01-19T13:12:15.372Z,39.72
2023-01-19T13:14:43.202Z,47.28
2023-01-19T13:17:19.294Z,51.53
2023-01-19T13:19:52.242Z,42.50
2023-01-19T13:22:47.234Z,47.75
2023-01-19T13:25:26.710Z,47.15
2023-01-19T13:27:53.955Z,40.72
2023-01-19T13:30:23.433Z,40.78
2023-01-19T13:32:50.372Z,45.95
2023-01-19T13:35:20.131Z,36.70
2023-01-19T13:37:47.640Z,43.17
2023-01-19T13:40:36.969Z,39.05
2023-01-19T13:43:04.476Z,45.28
2023-01-19T13:45:38.074Z,37.03
2023-01-19T13:48:14.924Z,37.58
2023-01-19T13:50:42.737Z,32.42
2023-01-19T13:53:20.763Z,32.83
2023-01-19T13:55:50.054Z,36.45
2023-01-19T13:58:35.071Z,34.45
2023-01-19T14:01:02.234Z,33.78
2023-01-19T14:03:28.870Z,31.35
2023-01-19T14:05:55.566Z,38.70
2023-01-19T14:08:23.090Z,34.95
2023-01-19T14:11:00.139Z,38.58
2023-01-19T14:13:41.610Z,38.55
2023-01-19T14:16:16.264Z,34.53
2023-01-19T14:18:42.856Z,40.53
2023-01-19T14:21:14.810Z,35.72
2023-01-19T14:23:55.116Z,37.22
2023-01-19T14:26:43.497Z,39.53
2023-01-19T14:29:09.962Z,46.30
2023-01-19T14:31:48.029Z,53.42
2023-01-19T14:34:32.062Z,49.95
2023-01-19T14:36:58.926Z,42.97
2023-01-19T14:39:29.614Z,46.38
2023-01-19T14:41:59.621Z,45.63
2023-01-19T14:44:28.895Z,45.92
2023-01-19T14:46:56.491Z,42.65
2023-01-19T14:49:33.735Z,42.78
2023-01-19T14:52:06.771Z,45.35
2023-01-19T14:54:40.930Z,39.70
2023-01-19T14:57:13.111Z,39.85
2023-01-19T14:59:40.550Z,39.97
2023-01-19T15:02:07.681Z,41.03
2023-01-19T15:04:37.637Z,34.55
2023-01-19T15:07:04.679Z,35.70
2023-01-19T15:09:31.136Z,37.55
2023-01-19T15:11:58.264Z,36.28
2023-01-19T15:14:24.824Z,32.95
2023-01-19T15:16:51.441Z,34.00
2023-01-19T15:19:18.542Z,35.40
2023-01-19T15:21:46.818Z,32.88
2023-01-19T15:24:14.878Z,43.30
2023-01-19T15:26:42.824Z,29.25
2023-01-19T15:29:25.396Z,32.65
2023-01-19T15:31:52.521Z,33.15
2023-01-19T15:34:19.167Z,31.42
2023-01-19T15:36:45.687Z,33.13
2023-01-19T15:39:12.176Z,33.40
2023-01-19T15:41:40.953Z,37.05
2023-01-19T15:44:10.126Z,38.75
2023-01-19T15:46:37.163Z,40.67
2023-01-19T15:49:05.794Z,39.88
2023-01-19T15:51:32.944Z,40.70
2023-01-19T15:53:59.734Z,42.17
2023-01-19T15:56:30.802Z,37.45
2023-01-19T16:01:34.681Z,36.40
2023-01-19T16:04:03.742Z,37.25
2023-01-19T16:06:31.253Z,34.47
2023-01-19T16:09:01.666Z,24.08
2023-01-19T16:11:31.889Z,37.80
2023-01-19T16:13:58.511Z,38.58
2023-01-19T16:16:26.661Z,36.10
2023-01-19T16:18:53.491Z,43.45
2023-01-19T16:21:20.101Z,41.97
2023-01-19T16:23:46.618Z,43.00
2023-01-19T16:26:32.189Z,40.08
2023-01-19T16:29:01.026Z,37.65
2023-01-19T16:31:28.563Z,38.63
2023-01-19T16:33:55.504Z,37.33
2023-01-19T16:36:30.943Z,32.38
2023-01-19T16:39:02.746Z,37.90
2023-01-19T16:41:29.443Z,33.03
2023-01-19T16:43:57.608Z,31.75
2023-01-19T16:46:27.434Z,37.53
2023-01-19T16:48:59.179Z,44.17
2023-01-19T16:51:25.774Z,35.80
2023-01-19T16:53:52.261Z,38.30
2023-01-19T16:56:19.163Z,37.55
2023-01-19T16:58:46.346Z,49.92
2023-01-19T17:01:20.409Z,43.53
2023-01-19T17:03:47.960Z,37.00
2023-01-19T17:06:22.568Z,42.03
2023-01-19T17:08:50.076Z,45.22
2023-01-19T17:11:20.937Z,39.97
2023-01-19T17:13:56.624Z,40.45
2023-01-19T17:16:24.722Z,53.33
2023-01-19T17:18:53.077Z,40.22
2023-01-19T17:21:20.266Z,34.10
2023-01-19T17:23:49.028Z,33.40
2023-01-19T17:26:17.030Z,29.17
2023-01-19T17:28:44.289Z,24.58
2023-01-19T17:31:12.457Z,23.23
2023-01-19T17:33:39.957Z,25.00
2023-01-19T17:36:10.062Z,25.77
2023-01-19T17:38:37.103Z,24.38
2023-01-19T17:41:12.417Z,21.50
2023-01-19T17:43:38.888Z,34.38
2023-01-19T17:46:05.766Z,23.60
2023-01-19T17:48:32.325Z,23.17
2023-01-19T17:51:03.483Z,24.17
2023-01-19T17:53:30.000Z,22.95
2023-01-19T17:56:03.194Z,31.83
2023-01-19T17:58:31.240Z,25.95
2023-01-19T18:00:58.545Z,25.90
2023-01-19T18:03:25.076Z,22.95
2023-01-19T18:05:55.662Z,31.60
2023-01-19T18:08:22.503Z,29.15
2023-01-19T18:10:56.923Z,25.75
2023-01-19T18:13:24.175Z,25.13
2023-01-19T18:15:50.806Z,25.77
2023-01-19T18:18:18.285Z,25.95
2023-01-19T18:20:44.753Z,22.85
2023-01-19T18:23:11.814Z,27.60
2023-01-19T18:25:39.626Z,19.88
2023-01-19T18:28:07.133Z,24.60
2023-01-19T18:30:37.206Z,26.38
2023-01-19T18:33:04.144Z,20.88
2023-01-19T18:35:30.680Z,21.08
2023-01-19T18:37:58.573Z,28.17
2023-01-19T18:40:25.575Z,28.63
2023-01-19T18:42:52.149Z,21.35
2023-01-19T18:45:18.600Z,18.73
2023-01-19T18:47:45.182Z,26.20
2023-01-19T18:50:14.103Z,25.10
2023-01-19T18:52:40.830Z,21.83
2023-01-19T18:55:07.624Z,25.80
2023-01-19T18:57:35.707Z,36.47
2023-01-19T19:00:03.381Z,23.48
2023-01-19T19:02:29.974Z,27.88
2023-01-19T19:04:56.505Z,24.40
2023-01-19T19:07:23.001Z,25.15
2023-01-19T19:09:49.514Z,27.40
2023-01-19T19:12:16.109Z,29.65
2023-01-19T19:14:42.688Z,32.33
2023-01-19T19:17:09.206Z,28.05
2023-01-19T19:19:35.881Z,30.10
2023-01-19T19:22:02.394Z,26.92
2023-01-19T19:24:29.050Z,28.60
2023-01-19T19:26:55.653Z,31.88
2023-01-19T19:29:22.449Z,30.30
2023-01-19T19:31:49.096Z,26.88
2023-01-19T19:34:15.625Z,31.10
2023-01-19T19:36:42.259Z,23.65
2023-01-19T19:39:08.847Z,24.58
2023-01-19T19:41:38.303Z,27.35
2023-01-19T19:44:04.921Z,23.90
2023-01-19T19:46:31.552Z,25.52
2023-01-19T19:48:58.233Z,24.20
2023-01-19T19:51:27.112Z,29.23
2023-01-19T19:53:59.023Z,28.35
2023-01-19T19:56:28.045Z,29.50
2023-01-19T19:58:56.287Z,24.55
2023-01-19T20:01:28.591Z,29.17
2023-01-19T20:03:59.906Z,24.55
2023-01-19T20:06:27.623Z,28.83
2023-01-19T20:08:56.119Z,32.20
2023-01-19T20:11:26.394Z,29.55
2023-01-19T20:13:53.323Z,28.65
2023-01-19T20:16:22.107Z,36.25
2023-01-19T20:18:56.770Z,27.73
2023-01-19T20:21:29.696Z,29.05
2023-01-19T20:24:00.173Z,41.53
2023-01-19T20:26:30.547Z,32.90
2023-01-19T20:28:59.825Z,30.30
2023-01-19T20:31:29.345Z,39.03
2023-01-19T20:33:58.136Z,35.63
2023-01-19T20:36:26.114Z,41.70
2023-01-19T20:38:53.938Z,34.80
2023-01-19T20:41:22.137Z,39.63
2023-01-19T20:43:48.908Z,37.70
2023-01-19T20:46:15.892Z,34.33
2023-01-19T20:48:42.389Z,30.67
2023-01-19T20:51:11.941Z,30.13
2023-01-19T20:53:39.986Z,34.13
2023-01-19T20:56:10.992Z,30.25
2023-01-19T20:58:38.015Z,25.65
2023-01-19T21:01:17.349Z,37.13
2023-01-19T21:03:44.158Z,30.17
2023-01-19T21:06:11.894Z,31.63
2023-01-19T21:08:38.920Z,31.52
2023-01-19T21:11:06.951Z,31.00
2023-01-19T21:13:34.215Z,34.50
2023-01-19T21:16:01.316Z,28.27
2023-01-19T21:18:28.048Z,29.73
2023-01-19T21:20:58.173Z,28.95
2023-01-19T21:23:26.742Z,28.90
2023-01-19T21:25:55.930Z,28.02
2023-01-19T21:28:23.105Z,25.58
2023-01-19T21:30:51.013Z,28.10
2023-01-19T21:33:17.697Z,33.28
2023-01-19T21:35:57.472Z,38.92
2023-01-19T21:38:29.834Z,30.67
2023-01-19T21:40:57.639Z,31.95
2023-01-19T21:43:25.472Z,30.13
2023-01-19T21:45:52.506Z,37.88
2023-01-19T21:48:19.802Z,32.42
2023-01-19T21:50:46.461Z,28.23
2023-01-19T21:53:12.981Z,33.10
2023-01-19T21:55:44.454Z,32.80
2023-01-19T21:58:11.003Z,30.48
2023-01-19T22:00:37.549Z,29.00
2023-01-19T22:03:04.876Z,26.13
2023-01-19T22:05:36.772Z,30.90
2023-01-19T22:08:04.457Z,28.52
2023-01-19T22:10:30.950Z,31.83
2023-01-19T22:12:57.461Z,28.92
2023-01-19T22:15:24.046Z,28.58
2023-01-19T22:17:50.540Z,29.25
2023-01-19T22:20:17.328Z,34.53
2023-01-19T22:22:43.801Z,31.90
2023-01-19T22:25:10.415Z,35.28
2023-01-19T22:27:37.448Z,25.75
2023-01-19T22:30:04.196Z,26.85
2023-01-19T22:32:31.316Z,30.08
2023-01-19T22:34:57.880Z,29.65
2023-01-19T22:37:24.411Z,27.92
2023-01-19T22:39:50.851Z,30.35
2023-01-19T22:42:17.389Z,27.42
2023-01-19T22:44:44.253Z,31.67
2023-01-19T22:47:10.677Z,28.90
2023-01-19T22:49:37.216Z,29.13
2023-01-19T22:52:03.869Z,33.95
2023-01-19T22:54:30.343Z,33.10
2023-01-19T22:56:56.773Z,31.73
2023-01-19T22:59:23.247Z,31.98
2023-01-19T23:01:49.987Z,34.53
2023-01-19T23:04:16.651Z,29.55
2023-01-19T23:06:43.586Z,34.80
2023-01-19T23:09:14.314Z,32.95
2023-01-19T23:11:43.341Z,29.48
2023-01-19T23:14:14.721Z,30.58
2023-01-19T23:16:41.595Z,31.55
2023-01-19T23:19:08.085Z,35.50
2023-01-19T23:21:34.698Z,33.38
2023-01-19T23:24:03.245Z,29.77
2023-01-19T23:26:30.863Z,32.00
2023-01-19T23:28:59.897Z,33.55
2023-01-19T23:31:31.994Z,33.25
2023-01-19T23:34:00.785Z,33.63
2023-01-19T23:36:29.677Z,41.38
2023-01-19T23:39:01.548Z,34.28
2023-01-19T23:41:30.582Z,35.05
2023-01-19T23:43:57.215Z,33.80
2023-01-19T23:46:24.180Z,34.20
2023-01-19T23:48:50.669Z,30.90
2023-01-19T23:51:23.431Z,33.10
2023-01-19T23:53:50.711Z,39.83
2023-01-19T23:56:18.781Z,32.90
2023-01-19T23:58:53.130Z,40.25
